الرياض, السعودية

02:55 PM AST on أمتèبر 31, 2014 (GMT +0300)
Al Nakhil | Change Station
CLOSE
Current Station
Personal Weather Stations
Location: Riyadh, RIYADH PROVINCE
Elevation: 2198 ft
Nearby Weather Stations

Elev 2198 ft 24.74 °N, 46.61 °E | Updated 14 seconds ago

Clear
صافية
90.0 °F
Feels Like 86 °F
N
9.6
ريح متغير ريح from SSE
Gusts 14.0 mph

هذا اليوم
High -- | Low -- °F
--% Chance of Precip.
Yesterday
High -- | Low -- °F
Precip. -- في
5:59 AM 5:13 PM
الربع الاول, 54% visible
الضغط 29.89 في
وضوح الرؤية -9999.0 أميال
سحابات
مؤشر الحرارة 86 °F
نقطة الندى 38 °F
الرطوبة 16%
Rainfall 0.00 في
عمق الثلج Not available.
الأشعة فوق البنفسجية Not available.
Pollen Not available.
جودة الهواء Not available.
Flu Activity Not available.
METAR OERK 311100Z 20011KT CAVOK 32/01 Q1012 NOSIG

More Conditions Fewer Conditions

الضغط 29.89 في
وضوح الرؤية -9999.0 أميال
سحابات
مؤشر الحرارة 86 °F
نقطة الندى 38 °F
الرطوبة 16%
Rainfall 0.00 في
عمق الثلج Not available.
الأشعة فوق البنفسجية Not available.
Pollen Not available.
جودة الهواء Not available.
Flu Activity Not available.
METAR OERK 311100Z 20011KT CAVOK 32/01 Q1012 NOSIG

More Conditions Fewer Conditions

10-Day Weather Forecast

Almanac

علم الفلك

Oct. 31, 2014 Rise Set
Actual Time
Civil Twilight
Nautical Twilight
Astronomical Twilight
قمر
Length Of Visible Light
طول الیوم
Tomorrow will be .
, % of the Moon is Illuminated

Today's Extremes

Country Highs Country Lows

Community

WunderPhotos

Upload Photos

1,766,581 photos uploaded!

WunderBlogs® & News

Nearby

جودة الهواء

  جودة الهواء AQ Index Pollutant
Not available.

عمق الثلج

Station Depth Elevation

Earthquake Activity

City Distance Mag. Time & Date
Minimum magnitude displayed is 2.5.

Coastal Water Temperatures

مكان درجات الحرارة

Nearby Weather Stations